Flight Track Log - Related Links

Times and Time Zones

All times are in EDT time to prevent confusion due to time zone crossing. See the SKW6306 flight status page for this flight to view local times or setup timezone preferences in your user account.

Time Position Orientation Groundspeed Altitude Reporting Facility
EDT Latitude Longitude Course Direction KTS MPH feet Rate Location/Type
Sat 02:01:00 PM 39.8667 -104.8000 346° North 227 261 7,500  Level Denver TRACON
Sat 02:01:48 PM 39.9000 -104.8833 298° West 282 325 8,500 1,684 Climbing Denver TRACON
Sat 02:02:54 PM 39.9667 -104.9500 323° Northwest 299 344 10,700 1,905 Climbing Denver TRACON
Sat 02:03:00 PM 40.3322 -104.8219 346° North  Level FlightAware Approximate
Sat 02:03:54 PM 40.0500 -104.9500 360° North 301 346 12,500  Level Denver TRACON
Sat 02:04:00 PM 40.4527 -104.8620 346° North  Level FlightAware Approximate
Sat 02:05:00 PM 40.5737 -104.8996 348° North  Level FlightAware Approximate
Sat 02:05:15 PM 40.1519 -104.8731 30° Northeast 305 351 14,700  Level Denver Center
Sat 02:06:00 PM 40.6947 -104.9371 346° North  Level FlightAware Approximate
Sat 02:06:17 PM 40.2150 -104.8153 35° Northeast 323 372 16,100  Level Denver Center
Sat 02:07:19 PM 40.3269 -104.8194 358° North 338 389 17,200 1,065 Climbing Denver Center
Sat 02:08:21 PM 40.4264 -104.8297 356° North 356 410 18,300 1,113 Climbing Denver Center
Sat 02:09:23 PM 40.5375 -104.8369 357° North 367 422 19,500 1,210 Climbing Denver Center
Sat 02:10:25 PM 40.6408 -104.8436 357° North 370 426 20,800 1,065 Climbing Denver Center
Sat 02:11:27 PM 40.7464 -104.8461 359° North 361 415 21,700 774 Climbing Denver Center
Sat 02:12:29 PM 40.8494 -104.8797 346° North 378 435 22,400 774 Climbing Denver Center
Sat 02:13:31 PM 40.9569 -104.9053 350° North 396 456 23,300 871 Climbing Denver Center
Sat 02:14:33 PM 41.0758 -104.9333 350° North 403 464 24,200 677 Climbing Denver Center
Sat 02:15:35 PM 41.2019 -104.9586 351° North 411 473 24,700 484 Climbing Denver Center
Sat 02:16:37 PM 41.3144 -104.9814 351° North 424 488 25,200 581 Climbing Denver Center
Sat 02:17:39 PM 41.4311 -105.0089 350° North 437 503 25,900 629 Climbing Denver Center
Sat 02:18:41 PM 41.5672 -105.0356 352° North 444 511 26,500 532 Climbing Denver Center
Sat 02:19:43 PM 41.6844 -105.0614 351° North 445 512 27,000 529 Climbing Denver Center
Sat 02:20:57 PM 41.8428 -105.0950 351° North 451 519 27,700 574 Climbing Denver Center
Sat 02:21:59 PM 41.9819 -105.1261 351° North 452 520 28,300 532 Climbing Denver Center
Sat 02:23:01 PM 42.1011 -105.1517 351° North 452 520 28,800 484 Climbing Denver Center
Sat 02:24:03 PM 42.2217 -105.1786 351° North 455 524 29,300 484 Climbing Denver Center
Sat 02:25:05 PM 42.3611 -105.2089 351° North 455 524 29,800 532 Climbing Denver Center
Sat 02:26:07 PM 42.4811 -105.2353 351° North 453 521 30,400 581 Climbing Denver Center
Sat 02:27:09 PM 42.6200 -105.2653 351° North 451 519 31,000 532 Climbing Denver Center
Sat 02:28:11 PM 42.7389 -105.2925 350° North 450 518 31,500 484 Climbing Denver Center
Sat 02:29:13 PM 42.8786 -105.3217 351° North 451 519 32,000 242 Climbing Denver Center
Sat 02:30:15 PM 42.9969 -105.3492 350° North 449 517 32,000  Level Denver Center
Sat 02:31:17 PM 43.1167 -105.3753 351° North 453 521 32,000  Level Denver Center
Sat 02:32:19 PM 43.2581 -105.4072 351° North 457 526 32,000  Level Denver Center
Sat 02:33:21 PM 43.3828 -105.4194 356° North 460 529 32,000  Level Denver Center
Sat 02:34:23 PM 43.5297 -105.4244 359° North 466 536 32,000  Level Denver Center
Sat 02:35:25 PM 43.6514 -105.4269 359° North 463 533 32,000  Level Denver Center
Sat 02:36:27 PM 43.7894 -105.4333 358° North 452 520 32,000  Level Denver Center
Sat 02:37:28 PM 43.9064 -105.4422 357° North 445 512 32,000  Level Denver Center
Sat 02:38:30 PM 44.0225 -105.4500 357° North 440 506 32,000  Level Denver Center
Sat 02:39:32 PM 44.1611 -105.4614 357° North 443 510 32,000  Level Denver Center
Sat 02:40:34 PM 44.2814 -105.4728 356° North 448 516 32,000  Level Denver Center
Sat 02:41:36 PM 44.4225 -105.4858 356° North 453 521 32,000  Level Denver Center
Sat 02:42:38 PM 44.5444 -105.4956 357° North 456 525 32,000  Level Denver Center
Sat 02:43:18 PM 44.6275 -105.5067 355° North 459 528 32,000  Level Salt Lake Center
Sat 02:44:20 PM 44.7711 -105.5222 356° North 463 533 32,000  Level Salt Lake Center
Sat 02:45:22 PM 44.8953 -105.5331 356° North 465 535 32,000  Level Salt Lake Center
Sat 02:46:24 PM 45.0392 -105.5544 354° North 465 535 32,000  Level Salt Lake Center
Sat 02:47:26 PM 45.1622 -105.5736 354° North 465 535 32,000  Level Salt Lake Center
Sat 02:48:28 PM 45.2944 -105.5847 357° North 465 535 32,000  Level Salt Lake Center
Sat 02:49:30 PM 45.4206 -105.6156 350° North 461 531 32,000  Level Salt Lake Center
Sat 02:50:32 PM 45.5442 -105.6592 346° North 459 528 32,000  Level Salt Lake Center
Sat 02:51:34 PM 45.6681 -105.7031 346° North 459 528 32,000  Level Salt Lake Center
Sat 02:52:36 PM 45.8169 -105.7558 346° North 459 528 32,000  Level Salt Lake Center
Sat 02:53:38 PM 45.9397 -105.7950 347° North 456 525 32,000  Level Salt Lake Center
Sat 02:54:40 PM 46.0644 -105.8383 346° North 457 526 32,000  Level Salt Lake Center
Sat 02:55:41 PM 46.1889 -105.8822 346° North 458 527 32,000  Level Salt Lake Center
Sat 02:56:43 PM 46.3147 -105.9253 347° North 460 529 32,000  Level Salt Lake Center
Sat 02:57:45 PM 46.4417 -105.9711 346° North 464 534 32,000  Level Salt Lake Center
Sat 02:58:47 PM 46.5922 -106.0253 346° North 465 535 32,000 -48 Level Salt Lake Center
Sat 02:59:49 PM 46.7175 -106.0717 346° North 464 534 31,900  Descending Salt Lake Center
Sat 03:00:51 PM 46.8436 -106.1169 346° North 465 535 32,000 48 Climbing Salt Lake Center
Sat 03:01:53 PM 46.9683 -106.1622 346° North 465 535 32,000  Level Salt Lake Center
Sat 03:02:55 PM 47.0933 -106.2075 346° North 464 534 32,000  Level Salt Lake Center
Sat 03:03:57 PM 47.2186 -106.2536 346° North 464 534 32,000  Level Salt Lake Center
Sat 03:04:59 PM 47.3461 -106.3011 346° North 467 537 32,000  Level Salt Lake Center
Sat 03:06:01 PM 47.4981 -106.3578 346° North 469 540 32,000  Level Salt Lake Center
Sat 03:07:02 PM 47.6231 -106.4044 346° North 466 536 32,000  Level Salt Lake Center
Sat 03:08:04 PM 47.7500 -106.4511 346° North 467 537 32,000  Level Salt Lake Center
Sat 03:09:06 PM 47.8772 -106.4981 346° North 469 540 32,000  Level Salt Lake Center
Sat 03:10:08 PM 48.0047 -106.5461 346° North 471 542 32,000  Level Salt Lake Center
Sat 03:11:10 PM 48.1325 -106.5947 346° North 472 543 32,000  Level Salt Lake Center
Sat 03:12:12 PM 48.2847 -106.6578 345° North 473 544 32,000  Level Salt Lake Center
Sat 03:13:14 PM 48.4078 -106.7203 341° North 470 541 32,000  Level Salt Lake Center
Sat 03:14:16 PM 48.5317 -106.7819 342° North 469 540 32,000  Level Salt Lake Center
Sat 03:15:18 PM 48.6561 -106.8442 342° North 471 542 32,000  Level Salt Lake Center
Sat 03:16:20 PM 48.7797 -106.9072 341° North 471 542 32,000  Level Salt Lake Center
Sat 03:17:22 PM 48.9042 -106.9689 342° North 470 541 32,000  Level Salt Lake Center
Sat 03:18:24 PM 49.0278 -107.0311 342° North 469 540 32,000  Level Salt Lake Center
Sat 03:19:41 PM 49.1833 -107.1500 333° Northwest 470 541 32,000  Level Winnipeg Center
Sat 03:20:41 PM 49.3167 -107.2167 342° North 460 529 32,000  Level Winnipeg Center
Sat 03:21:41 PM 49.4333 -107.2667 344° North 460 529 32,000  Level Winnipeg Center
Sat 03:22:41 PM 49.5333 -107.3500 332° Northwest 450 518 32,000  Level Winnipeg Center
Sat 03:23:42 PM 49.6667 -107.4333 338° Northwest 450 518 32,000  Level Winnipeg Center
Sat 03:24:41 PM 49.7833 -107.5000 340° North 450 518 32,000  Level Winnipeg Center
Sat 03:25:41 PM 49.8833 -107.5833 332° Northwest 440 506 32,000  Level Winnipeg Center
Sat 03:26:41 PM 50.0000 -107.6667 335° Northwest 450 518 32,000  Level Winnipeg Center
Sat 03:27:41 PM 50.1167 -107.7167 345° North 430 495 32,000  Level Winnipeg Center
Sat 03:28:42 PM 50.2333 -107.8000 335° Northwest 440 506 32,000  Level Winnipeg Center
Sat 03:29:41 PM 50.3500 -107.8000 360° North 440 506 32,000  Level Winnipeg Center
Sat 03:30:41 PM 50.4667 -107.7667 10° North 440 506 32,000 -50 Level Winnipeg Center
Sat 03:31:41 PM 50.5833 -107.7167 15° North 440 506 31,900 -900 Descending Winnipeg Center
Sat 03:32:41 PM 50.7000 -107.6333 24° Northeast 450 518 30,200 -2,000 Descending Winnipeg Center
Sat 03:33:41 PM 50.8500 -107.6000 North 480 552 27,900 -2,479 Descending Winnipeg Center
Sat 03:34:42 PM 50.9500 -107.5333 23° Northeast 480 552 25,200 -2,700 Descending Winnipeg Center
Sat 03:35:41 PM 51.0833 -107.4833 13° North 460 529 22,500 -2,824 Descending Winnipeg Center
Sat 03:36:41 PM 51.2000 -107.4333 15° North 450 518 19,600 -2,750 Descending Winnipeg Center
Sat 03:37:41 PM 51.3167 -107.3833 15° North 440 506 17,000 -2,700 Descending Winnipeg Center
Sat 03:38:41 PM 51.4333 -107.3333 15° North 420 483 14,200 -2,550 Descending Winnipeg Center
Sat 03:39:41 PM 51.5333 -107.2667 23° Northeast 390 449 11,900 -1,800 Descending Winnipeg Center
Sat 03:40:41 PM 51.6167 -107.2333 14° North 350 403 10,600 -1,350 Descending Winnipeg Center
Sat 03:41:41 PM 51.7167 -107.2000 12° North 320 368 9,200 -1,500 Descending Winnipeg Center
Sat 03:42:41 PM 51.7833 -107.1667 17° North 300 345 7,600 -1,550 Descending Winnipeg Center
Sat 03:43:41 PM 51.8667 -107.1333 14° North 290 334 6,100 -800 Descending Winnipeg Center
Sat 03:44:41 PM 51.9333 -107.0833 25° Northeast 290 334 6,000 -50 Descending Winnipeg Center
Sat 03:45:41 PM 52.0167 -107.0500 14° North 290 334 6,000 -550 Level Winnipeg Center
Sat 03:46:41 PM 52.0833 -107.0167 17° North 270 311 4,900 -1,100 Descending Winnipeg Center

Login

Don't have an account? Register now (free) for customized features, flight alerts, and more!